Nearby METAR Reports

 

KALB - Albany, New York, USA
Distance from station: E 47mi, 75km
Updated: Mon, 10-Dec-2018 1:51am EST
Overcast
Overcast
 Wind from S
Wind: S 3 mph , 6 km/h
Temperature: 28°F , -2°C
Dew Point: 18°F , -8°C
Humidity: 64%
Barometer: 30.12 inHg , 1020 hPa
Clouds: Overcast
Visibility: 10 miles , 16 km
Cloud details: Overcast 3600 ft
2018/12/10 06:51 KALB 100651Z 19003KT 10SM OVC036 M02/M08 A3012 RMK AO2 SLP203 T10171078
KSLK - Saranac Lake, New York, USA
Distance from station: N 110mi, 177km
Updated: Mon, 10-Dec-2018 2:33am EST
Overcast
Overcast
 Wind from varies
Wind: varies 3 mph , 6 km/h
Temperature: 25°F , -4°C
Dew Point: 21°F , -6°C
Humidity: 86%
Barometer: 30.03 inHg , 1016.9 hPa
Clouds: Overcast
Visibility: 10 miles , 16 km
Cloud details: Mostly cloudy 1200 ft
Overcast 2600 ft
2018/12/10 07:33 KSLK 100733Z AUTO VRB03KT 10SM BKN012 OVC026 M04/M06 A3003 RMK AO2 SNE24 P0000 T10441061 $
 
KSYR - Syracuse, New York, USA
Distance from station: W 73mi, 117km
Updated: Mon, 10-Dec-2018 2:39am EST
Overcast
Overcast
 Wind from W
Wind: W 8 mph , 13 km/h
Temperature: 28°F , -2°C
Wind Chill: 20°F , -7°C
Dew Point: 23°F , -5°C
Humidity: 80%
Barometer: 30.15 inHg , 1021 hPa
Clouds: Overcast
Visibility: 10 miles , 16 km
Cloud details: Overcast 3200 ft
2018/12/10 07:39 KSYR 100739Z 27007KT 10SM OVC032 M02/M05 A3015 RMK AO2 T10221050
KBGM - Binghamton, New York, USA
Distance from station: SW 78mi, 126km
Updated: Mon, 10-Dec-2018 1:53am EST
Overcast
Overcast
 Wind from NNW
Wind: NNW 6 mph , 9 km/h
Temperature: 21°F , -6°C
Wind Chill: 13°F , -11°C
Dew Point: 19°F , -7°C
Humidity: 93%
Barometer: 30.06 inHg , 1017.9 hPa
Clouds: Overcast
Visibility: 8 miles , 13 km
Cloud details: Overcast 2100 ft
2018/12/10 06:53 KBGM 100653Z AUTO 33005KT 8SM OVC021 M06/M07 A3006 RMK AO2 SLP203 T10561072 $
 
KRME - Rome, New York, USA
Distance from station: WNW 43mi, 69km
Updated: Mon, 10-Dec-2018 2:32am EST
Overcast
Overcast
 Wind from calm
Wind: Calm
Temperature: 25°F , -4°C
Dew Point: 23°F , -5°C
Humidity: 93%
Barometer: 30.15 inHg , 1021 hPa
Clouds: Overcast
Visibility: 10 miles , 16 km
Cloud details: Overcast 3100 ft
2018/12/10 07:32 KRME 100732Z AUTO 00000KT 10SM OVC031 M04/M05 A3015 RMK AO2 T10391050 $
KJFK - New York, New York, USA
Distance from station: SSE 159mi, 256km
Updated: Mon, 10-Dec-2018 1:51am EST
Partly cloudy
Partly cloudy
 Wind from N
Wind: N 8 mph , 13 km/h
Temperature: 28°F , -2°C
Wind Chill: 20°F , -7°C
Dew Point: 18°F , -8°C
Humidity: 64%
Barometer: 30.12 inHg , 1020 hPa
Clouds: Partly cloudy
Visibility: 10 miles , 16 km
Cloud details: Partly cloudy 25000 ft
2018/12/10 06:51 KJFK 100651Z 36007KT 10SM SCT250 M02/M08 A3012 RMK AO2 SLP200 T10171083
 
KROC - Rochester, New York, USA
Distance from station: W 150mi, 242km
Updated: Mon, 10-Dec-2018 1:54am EST
Overcast
Overcast
 Wind from W
Wind: W 8 mph , 13 km/h
Temperature: 28°F , -2°C
Wind Chill: 20°F , -7°C
Dew Point: 23°F , -5°C
Humidity: 80%
Barometer: 30.16 inHg , 1021.3 hPa
Clouds: Overcast
Visibility: 9 miles , 14 km
Cloud details: Overcast 2500 ft
2018/12/10 06:54 KROC 100654Z 27007KT 9SM OVC025 M02/M05 A3016 RMK AO2 SLP224 T10171050
KART - Watertown, New York, USA
Distance from station: NNW 103mi, 166km
Updated: Mon, 10-Dec-2018 1:56am EST
Overcast
Overcast
 Wind from NW
Wind: NW 3 mph , 6 km/h
Temperature: 25°F , -4°C
Dew Point: 21°F , -6°C
Humidity: 86%
Barometer: 30.15 inHg , 1021 hPa
Clouds: Overcast
Visibility: 10 miles , 16 km
Cloud details: Overcast 4700 ft
2018/12/10 06:56 KART 100656Z AUTO 31003KT 10SM OVC047 M04/M06 A3015 RMK AO2 SLP216 T10391056 $
 
KELM - Elmira-Corning, New York, USA
Distance from station: SSW 121mi, 195km
Updated: Mon, 10-Dec-2018 1:53am EST
Overcast
Overcast
 Wind from S
Wind: S 3 mph , 6 km/h
Temperature: 21°F , -6°C
Dew Point: 16°F , -9°C
Humidity: 80%
Barometer: 30.13 inHg , 1020.3 hPa
Clouds: Overcast
Visibility: 10 miles , 16 km
Cloud details: Overcast 2800 ft
2018/12/10 06:53 KELM 100653Z AUTO 19003KT 10SM OVC028 M06/M09 A3013 RMK AO2 SLP215 T10611089
KJHW - Jamestown, New York, USA
Distance from station: SW 238mi, 383km
Updated: Mon, 10-Dec-2018 1:56am EST
Overcast
Overcast
 Wind from N
Wind: N 7 mph , 11 km/h
Temperature: 21°F , -6°C
Wind Chill: 12°F , -11°C
Dew Point: 19°F , -7°C
Humidity: 93%
Barometer: 30.12 inHg , 1020 hPa
Clouds: Overcast
Visibility: 9 miles , 14 km
Cloud details: Overcast 1100 ft
2018/12/10 06:56 KJHW 100656Z AUTO 01006KT 9SM OVC011 M06/M07 A3012 RMK AO2 SLP226 T10561072 FZRANO
 
KMSS - Massena, New York, USA
Distance from station: N 141mi, 232km
Updated: Mon, 10-Dec-2018 1:53am EST
Overcast
Overcast
 Wind from NNW
Wind: NNW 8 mph , 13 km/h
Temperature: 28°F , -2°C
Wind Chill: 20°F , -7°C
Dew Point: 19°F , -7°C
Humidity: 69%
Barometer: 30.17 inHg , 1021.7 hPa
Clouds: Overcast
Visibility: 10 miles , 16 km
Cloud details: Mostly cloudy 3800 ft
Overcast 4700 ft
2018/12/10 06:53 KMSS 100653Z AUTO 33007KT 10SM BKN038 OVC047 M02/M07 A3017 RMK AO2 SLP222 T10171072
KBUF - Buffalo, New York, USA
Distance from station: W 204mi, 328km
Updated: Mon, 10-Dec-2018 1:54am EST
Overcast
Overcast
 Wind from WSW
Wind: WSW 6 mph , 9 km/h
Temperature: 27°F , -3°C
Wind Chill: 20°F , -7°C
Dew Point: 21°F , -6°C
Humidity: 80%
Barometer: 30.17 inHg , 1021.7 hPa
Clouds: Overcast
Visibility: 10 miles , 16 km
Cloud details: Overcast 2800 ft
2018/12/10 06:54 KBUF 100654Z 25005KT 10SM OVC028 M03/M06 A3017 RMK AO2 SLP226 T10281061